Time;durP1;ratioP1;P1;durP2;ratioP2;P2;SDS_P1;SDS_P2;PMS_P1;PMS_P2;Temp;Humidity;BMP_temperature;BMP_pressure;BME280_temperature;BME280_humidity;BME280_pressure;Samples;Min_cycle;Max_cycle;Signal;HPM_P1;HPM_P2
2022/10/13 00:00:24;;;;;;;74.90;11.67;;;;;;;11.01;100.00;96811.75;5042165;28;20492;-70
2022/10/13 00:02:50;;;;;;;30.63;11.13;;;;;;;11.03;100.00;96799.19;5041929;28;20208;-72
2022/10/13 00:05:17;;;;;;;28.17;11.13;;;;;;;11.04;100.00;96808.75;5042400;28;20204;-69
2022/10/13 00:07:44;;;;;;;26.93;11.33;;;;;;;11.10;100.00;96804.66;5042265;28;20224;-70
2022/10/13 00:10:12;;;;;;;56.47;12.47;;;;;;;11.22;100.00;96808.59;5042520;28;20201;-70
2022/10/13 00:12:39;;;;;;;45.97;11.83;;;;;;;11.14;100.00;96811.25;5041574;28;20791;-70
2022/10/13 00:15:07;;;;;;;34.43;11.67;;;;;;;11.20;100.00;96815.84;5042170;28;20197;-73
2022/10/13 00:17:35;;;;;;;30.20;10.87;;;;;;;11.04;100.00;96811.41;5042522;28;20212;-71
2022/10/13 00:20:01;;;;;;;31.97;10.60;;;;;;;10.98;100.00;96813.88;5042375;28;20225;-72
2022/10/13 00:22:28;;;;;;;36.90;10.47;;;;;;;11.08;100.00;96822.44;5041486;28;20315;-71
2022/10/13 00:24:55;;;;;;;24.53;10.80;;;;;;;11.03;100.00;96809.75;5042225;28;20204;-71
2022/10/13 00:27:23;;;;;;;20.43;10.07;;;;;;;11.05;100.00;96810.41;5042325;28;20212;-70
2022/10/13 00:29:49;;;;;;;52.87;10.37;;;;;;;10.98;100.00;96805.97;5042283;28;20208;-71
2022/10/13 00:32:15;;;;;;;44.40;10.93;;;;;;;11.06;100.00;96811.22;5041428;28;20487;-70
2022/10/13 00:34:42;;;;;;;53.93;10.23;;;;;;;11.02;100.00;96812.56;5044438;28;20205;-73
2022/10/13 00:37:09;;;;;;;23.97;10.53;;;;;;;11.05;100.00;96813.06;5046416;28;20205;-70
2022/10/13 00:39:36;;;;;;;40.30;11.40;;;;;;;11.00;100.00;96809.28;5046091;28;20232;-71
2022/10/13 00:42:04;;;;;;;24.70;10.67;;;;;;;11.07;100.00;96813.72;5046278;28;20221;-71
2022/10/13 00:44:59;;;;;;;33.80;10.43;;;;;;;11.12;100.00;96808.75;5045435;28;20701;-70
2022/10/13 00:47:28;;;;;;;22.83;10.23;;;;;;;11.07;100.00;96815.53;5046117;28;20204;-71
2022/10/13 00:49:55;;;;;;;41.77;9.77;;;;;;;11.16;100.00;96818.00;5045884;28;20387;-71
2022/10/13 00:52:23;;;;;;;24.43;8.97;;;;;;;11.06;100.00;96819.97;5045358;28;20232;-70
2022/10/13 00:54:50;;;;;;;32.13;9.63;;;;;;;10.99;100.00;96824.25;5046466;28;20577;-73
2022/10/13 00:57:19;;;;;;;53.43;9.93;;;;;;;11.06;100.00;96825.25;5045751;28;20209;-73
2022/10/13 00:59:46;;;;;;;25.53;8.80;;;;;;;10.74;100.00;96819.13;5045721;28;20224;-70
2022/10/13 01:02:15;;;;;;;36.73;8.63;;;;;;;10.70;100.00;96822.28;5045527;28;20575;-73
2022/10/13 01:04:45;;;;;;;20.63;9.33;;;;;;;10.81;100.00;96824.59;5045412;28;20205;-71
2022/10/13 01:07:13;;;;;;;35.20;10.63;;;;;;;10.86;100.00;96825.75;5045743;28;20205;-71
2022/10/13 01:09:41;;;;;;;29.07;10.10;;;;;;;10.94;100.00;96823.91;5046288;28;20591;-70
2022/10/13 01:12:14;;;;;;;57.33;10.40;;;;;;;11.05;100.00;96831.50;5045075;28;20225;-71
2022/10/13 01:14:49;;;;;;;33.00;9.60;;;;;;;11.07;100.00;96834.81;5045465;28;20203;-70
2022/10/13 01:17:27;;;;;;;48.50;10.30;;;;;;;11.10;100.00;96826.56;5045332;28;20295;-70
2022/10/13 01:20:17;;;;;;;70.37;10.53;;;;;;;11.13;100.00;96823.59;5045224;28;20225;-70
2022/10/13 01:23:00;;;;;;;85.07;9.87;;;;;;;11.11;100.00;96828.22;5044809;28;20201;-69
2022/10/13 01:25:40;;;;;;;62.73;9.97;;;;;;;11.11;100.00;96812.41;5045614;28;20205;-72
2022/10/13 01:28:32;;;;;;;44.40;9.87;;;;;;;11.15;100.00;96816.34;5045411;28;20204;-70
2022/10/13 01:31:06;;;;;;;60.17;10.53;;;;;;;11.14;100.00;96812.06;5045238;28;20221;-69
2022/10/13 01:33:41;;;;;;;58.70;10.67;;;;;;;11.16;100.00;96810.09;5044793;28;20209;-70
2022/10/13 01:36:19;;;;;;;31.90;10.00;;;;;;;11.16;100.00;96801.34;5045448;28;20215;-71
2022/10/13 01:38:52;;;;;;;56.83;10.60;;;;;;;11.10;100.00;96794.91;5045114;28;20271;-73
2022/10/13 01:41:24;;;;;;;34.37;9.97;;;;;;;11.16;100.00;96789.00;5044747;28;20234;-71
2022/10/13 01:43:57;;;;;;;40.67;9.80;;;;;;;11.18;100.00;96792.25;5044485;28;20201;-70
2022/10/13 01:46:29;;;;;;;45.90;10.33;;;;;;;11.17;100.00;96790.59;5045084;28;20209;-70
2022/10/13 01:48:58;;;;;;;63.57;10.00;;;;;;;11.14;100.00;96788.31;5044849;28;20460;-71
2022/10/13 01:51:27;;;;;;;47.70;11.37;;;;;;;11.16;100.00;96786.34;5044686;28;20225;-70
2022/10/13 01:53:55;;;;;;;52.57;11.10;;;;;;;11.09;100.00;96782.72;5044215;28;20348;-71
2022/10/13 01:56:21;;;;;;;61.17;10.33;;;;;;;11.10;100.00;96781.72;5044872;28;20688;-70
2022/10/13 01:58:50;;;;;;;40.50;10.77;;;;;;;11.18;100.00;96779.06;5044588;28;20608;-73
2022/10/13 02:01:33;;;;;;;48.70;11.47;;;;;;;11.27;100.00;96780.72;5044523;28;20225;-71
2022/10/13 02:04:12;;;;;;;45.70;12.73;;;;;;;11.33;100.00;96773.94;5044494;28;20215;-71
2022/10/13 02:06:44;;;;;;;97.27;13.87;;;;;;;11.29;100.00;96759.44;5044412;28;20692;-70
2022/10/13 02:09:18;;;;;;;57.17;13.50;;;;;;;11.28;100.00;96766.53;5044821;28;20197;-71
2022/10/13 02:11:51;;;;;;;46.97;12.03;;;;;;;11.31;100.00;96755.63;5044254;28;20503;-71
2022/10/13 02:14:23;;;;;;;51.73;12.43;;;;;;;11.26;100.00;96759.78;5043793;28;20205;-70
2022/10/13 02:16:54;;;;;;;31.47;11.97;;;;;;;11.26;100.00;96757.13;5044697;28;20205;-71
2022/10/13 02:19:21;;;;;;;35.77;11.90;;;;;;;11.22;100.00;96756.63;5044588;28;20228;-72
2022/10/13 02:21:48;;;;;;;50.73;10.90;;;;;;;11.20;100.00;96758.63;5043862;28;20949;-70
2022/10/13 02:24:15;;;;;;;31.20;11.50;;;;;;;11.14;100.00;96759.31;5043507;28;20677;-70
2022/10/13 02:26:42;;;;;;;20.80;10.77;;;;;;;11.18;100.00;96771.16;5044243;28;20678;-70
2022/10/13 02:29:10;;;;;;;30.83;11.10;;;;;;;11.21;100.00;96768.19;5044438;28;20205;-70
2022/10/13 02:31:37;;;;;;;21.63;10.57;;;;;;;11.23;100.00;96766.22;5044035;28;20232;-70
2022/10/13 02:34:06;;;;;;;21.33;10.43;;;;;;;11.20;100.00;96763.91;5043277;28;20733;-73
2022/10/13 02:36:33;;;;;;;21.13;10.60;;;;;;;11.16;100.00;96762.59;5043826;28;20210;-71
2022/10/13 02:39:00;;;;;;;24.83;10.00;;;;;;;11.13;100.00;96764.75;5043875;28;20225;-71
2022/10/13 02:41:26;;;;;;;19.30;10.07;;;;;;;11.11;100.00;96764.91;5043817;28;20713;-72
2022/10/13 02:43:52;;;;;;;19.70;9.57;;;;;;;11.13;100.00;96760.28;5043354;28;20205;-70
2022/10/13 02:46:19;;;;;;;25.47;9.43;;;;;;;11.07;100.00;96763.63;5043995;28;20209;-70
2022/10/13 02:48:45;;;;;;;23.20;10.13;;;;;;;11.04;100.00;96763.13;5043625;28;20831;-70
2022/10/13 02:51:13;;;;;;;22.33;8.93;;;;;;;11.12;100.00;96757.81;5042484;28;20339;-71
2022/10/13 02:53:40;;;;;;;19.23;9.53;;;;;;;11.10;100.00;96763.28;5043373;28;20212;-71
2022/10/13 02:56:07;;;;;;;20.50;9.63;;;;;;;11.12;100.00;96756.00;5043262;28;20209;-70
2022/10/13 02:58:34;;;;;;;19.83;9.10;;;;;;;11.12;100.00;96761.28;5043219;28;20213;-73
2022/10/13 03:01:05;;;;;;;20.63;10.57;;;;;;;11.23;100.00;96754.84;5043732;28;20231;-71
2022/10/13 03:03:32;;;;;;;19.77;9.63;;;;;;;11.13;100.00;96762.91;5042915;28;20717;-69
2022/10/13 03:05:58;;;;;;;21.73;9.73;;;;;;;11.11;100.00;96761.44;5043250;28;20212;-72
2022/10/13 03:08:26;;;;;;;19.67;9.87;;;;;;;11.15;100.00;96765.38;5043714;28;20903;-70
2022/10/13 03:10:53;;;;;;;22.20;10.33;;;;;;;11.16;100.00;96767.88;5043484;28;20826;-71
2022/10/13 03:13:20;;;;;;;22.90;9.67;;;;;;;11.09;100.00;96774.81;5042750;28;20207;-70
2022/10/13 03:15:47;;;;;;;22.90;10.33;;;;;;;10.99;100.00;96771.50;5043092;28;20216;-70
2022/10/13 03:18:14;;;;;;;19.40;9.73;;;;;;;11.12;100.00;96771.81;5043271;28;20254;-71
2022/10/13 03:20:41;;;;;;;24.70;10.00;;;;;;;11.15;100.00;96771.50;5043130;28;20251;-70
2022/10/13 03:23:07;;;;;;;21.50;9.83;;;;;;;11.23;100.00;96771.47;5042581;28;20463;-70
2022/10/13 03:25:35;;;;;;;22.30;10.70;;;;;;;11.23;100.00;96771.47;5043161;28;20204;-73
2022/10/13 03:28:02;;;;;;;17.27;8.97;;;;;;;11.21;100.00;96776.09;5043259;28;20197;-71
2022/10/13 03:30:29;;;;;;;19.43;9.73;;;;;;;11.15;100.00;96773.31;5042588;28;20709;-71
2022/10/13 03:32:55;;;;;;;18.87;8.43;;;;;;;11.06;100.00;96772.50;5042455;28;20553;-71
2022/10/13 03:35:22;;;;;;;19.33;9.30;;;;;;;11.14;100.00;96772.50;5043300;28;20205;-71
2022/10/13 03:37:48;;;;;;;19.20;9.20;;;;;;;11.13;100.00;96786.66;5042771;28;20209;-70
2022/10/13 03:40:15;;;;;;;21.00;10.87;;;;;;;11.20;100.00;96781.53;5042943;28;20229;-70
2022/10/13 03:42:43;;;;;;;20.93;9.53;;;;;;;11.29;100.00;96784.00;5042184;28;20201;-71
2022/10/13 03:45:10;;;;;;;15.80;9.17;;;;;;;11.20;100.00;96789.44;5042536;28;20205;-73
2022/10/13 03:47:37;;;;;;;19.83;9.57;;;;;;;11.16;100.00;96780.22;5042548;28;20209;-71
2022/10/13 03:50:04;;;;;;;21.47;9.97;;;;;;;11.06;100.00;96780.44;5043092;28;20205;-70
2022/10/13 03:52:31;;;;;;;19.30;9.30;;;;;;;11.16;100.00;96783.72;5041852;28;20235;-73
2022/10/13 03:54:57;;;;;;;26.13;10.80;;;;;;;11.15;100.00;96782.06;5043075;28;20937;-70
2022/10/13 03:57:24;;;;;;;23.67;10.87;;;;;;;11.12;100.00;96781.56;5042642;28;20220;-70
2022/10/13 03:59:54;;;;;;;23.57;11.53;;;;;;;11.14;100.00;96769.84;5042399;28;20221;-70
2022/10/13 04:02:21;;;;;;;23.77;10.33;;;;;;;11.16;100.00;96778.44;5041771;28;20240;-71
2022/10/13 04:04:47;;;;;;;20.47;9.80;;;;;;;11.13;100.00;96784.03;5042640;28;20201;-71
2022/10/13 04:07:14;;;;;;;21.10;9.73;;;;;;;11.09;100.00;96774.81;5042466;28;20863;-71
2022/10/13 04:09:40;;;;;;;19.43;9.73;;;;;;;11.13;100.00;96781.38;5041450;28;20198;-69
2022/10/13 04:12:07;;;;;;;21.97;10.07;;;;;;;11.11;100.00;96782.53;5042106;28;20233;-70
2022/10/13 04:14:34;;;;;;;18.93;9.37;;;;;;;11.14;100.00;96776.97;5042121;28;20201;-70
2022/10/13 04:17:02;;;;;;;17.13;8.10;;;;;;;11.26;100.00;96773.78;5042193;28;20213;-70
2022/10/13 04:19:28;;;;;;;16.03;8.73;;;;;;;11.27;100.00;96769.34;5042372;28;20221;-71
2022/10/13 04:21:55;;;;;;;19.17;9.30;;;;;;;11.24;100.00;96770.50;5042385;28;20228;-70
2022/10/13 04:24:21;;;;;;;20.07;9.53;;;;;;;11.21;100.00;96765.53;5041517;28;20212;-70
2022/10/13 04:26:48;;;;;;;17.70;8.63;;;;;;;11.27;100.00;96769.34;5042433;28;20205;-70
2022/10/13 04:29:14;;;;;;;19.10;9.93;;;;;;;11.35;100.00;96767.50;5042089;28;20197;-70
2022/10/13 04:31:42;;;;;;;20.00;9.03;;;;;;;11.37;100.00;96764.72;5042060;28;20225;-71
2022/10/13 04:34:11;;;;;;;20.80;10.10;;;;;;;11.42;100.00;96760.56;5041391;28;20220;-73
2022/10/13 04:36:37;;;;;;;18.93;9.83;;;;;;;11.35;100.00;96754.28;5042228;28;20569;-70
2022/10/13 04:39:04;;;;;;;23.63;10.60;;;;;;;11.48;100.00;96751.13;5041737;28;20331;-70
2022/10/13 04:41:31;;;;;;;19.63;9.77;;;;;;;11.40;100.00;96756.44;5041696;28;20323;-72
2022/10/13 04:43:57;;;;;;;22.23;10.07;;;;;;;11.45;100.00;96757.56;5041639;28;20224;-70
2022/10/13 04:46:26;;;;;;;20.57;10.03;;;;;;;11.55;100.00;96753.75;5042086;28;20212;-71
2022/10/13 04:48:53;;;;;;;21.00;9.87;;;;;;;11.52;100.00;96753.31;5041820;28;20217;-70
2022/10/13 04:51:23;;;;;;;22.07;9.47;;;;;;;11.56;100.00;96757.25;5042037;28;20657;-72
2022/10/13 04:53:54;;;;;;;20.70;9.60;;;;;;;11.54;100.00;96751.31;5041346;28;20201;-72
2022/10/13 04:56:21;;;;;;;24.77;9.70;;;;;;;11.47;100.00;96749.47;5041845;28;20335;-71
2022/10/13 04:58:47;;;;;;;24.87;10.27;;;;;;;11.37;100.00;96749.69;5042143;28;20207;-71
2022/10/13 05:01:16;;;;;;;21.97;9.90;;;;;;;11.41;100.00;96736.97;5041823;28;20236;-71
2022/10/13 05:03:42;;;;;;;23.23;10.57;;;;;;;11.37;100.00;96743.59;5041187;28;20408;-70
2022/10/13 05:06:14;;;;;;;23.20;10.60;;;;;;;11.50;100.00;96739.44;5041967;28;20202;-71
2022/10/13 05:08:42;;;;;;;25.33;11.10;;;;;;;11.51;100.00;96746.38;5041894;28;20292;-73
2022/10/13 05:11:09;;;;;;;24.50;10.37;;;;;;;11.48;100.00;96738.78;5041998;28;20225;-71
2022/10/13 05:13:35;;;;;;;23.40;10.00;;;;;;;11.47;100.00;96742.41;5041307;28;20456;-72
2022/10/13 05:16:06;;;;;;;20.73;10.33;;;;;;;11.63;100.00;96737.91;5041803;28;20206;-72
2022/10/13 05:18:33;;;;;;;22.37;10.53;;;;;;;11.52;100.00;96741.91;5041620;28;20201;-71
2022/10/13 05:21:06;;;;;;;21.43;10.43;;;;;;;11.64;100.00;96731.63;5044152;28;20229;-70
2022/10/13 05:23:33;;;;;;;20.67;10.77;;;;;;;11.58;100.00;96731.50;5044896;28;20224;-70
2022/10/13 05:26:02;;;;;;;22.03;10.53;;;;;;;11.55;100.00;96737.94;5045258;28;20212;-70
2022/10/13 05:28:29;;;;;;;22.27;10.33;;;;;;;11.56;100.00;96738.78;5045423;28;20225;-70
2022/10/13 05:30:56;;;;;;;23.50;10.53;;;;;;;11.55;100.00;96731.84;5045386;28;20597;-71
2022/10/13 05:33:22;;;;;;;21.23;10.53;;;;;;;11.62;100.00;96733.63;5044480;28;20594;-70
2022/10/13 05:35:48;;;;;;;19.27;10.10;;;;;;;11.63;100.00;96731.81;5045497;28;20216;-72
2022/10/13 05:38:15;;;;;;;23.67;11.00;;;;;;;11.64;100.00;96736.91;5044963;28;20751;-72
2022/10/13 05:40:41;;;;;;;27.57;12.37;;;;;;;11.66;100.00;96744.69;5045173;28;20221;-70
2022/10/13 05:43:09;;;;;;;27.90;12.93;;;;;;;11.69;100.00;96739.84;5044653;28;20691;-70
2022/10/13 05:45:36;;;;;;;29.00;11.07;;;;;;;11.67;100.00;96738.38;5044629;28;20208;-71
2022/10/13 05:48:02;;;;;;;25.90;10.90;;;;;;;11.68;100.00;96742.69;5044611;28;20584;-74
2022/10/13 05:50:29;;;;;;;25.80;11.13;;;;;;;11.65;100.00;96745.66;5045225;28;20212;-74
2022/10/13 05:52:57;;;;;;;20.60;9.63;;;;;;;11.67;100.00;96741.03;5044080;28;20670;-71
2022/10/13 05:55:23;;;;;;;21.77;10.33;;;;;;;11.66;100.00;96744.69;5044852;28;20202;-72
2022/10/13 05:57:52;;;;;;;23.03;10.20;;;;;;;11.73;100.00;96737.72;5045027;28;20220;-71
2022/10/13 06:00:20;;;;;;;26.07;10.87;;;;;;;11.75;100.00;96743.66;5044566;28;20723;-70
2022/10/13 06:02:51;;;;;;;22.17;10.33;;;;;;;11.65;100.00;96745.66;5043837;28;20220;-74
2022/10/13 06:05:21;;;;;;;23.17;11.93;;;;;;;11.71;100.00;96742.31;5044925;28;20209;-70
2022/10/13 06:07:48;;;;;;;24.40;11.30;;;;;;;11.70;100.00;96738.88;5044923;28;20220;-71
2022/10/13 06:10:15;;;;;;;22.63;11.33;;;;;;;11.73;100.00;96745.63;5044617;28;20530;-70
2022/10/13 06:12:41;;;;;;;28.27;11.87;;;;;;;11.69;100.00;96741.69;5043634;28;20233;-70
2022/10/13 06:15:09;;;;;;;32.57;13.00;;;;;;;11.80;100.00;96746.56;5044471;28;20213;-70
2022/10/13 06:17:37;;;;;;;27.60;13.47;;;;;;;11.83;100.00;96740.97;5044192;28;20206;-72
2022/10/13 06:20:05;;;;;;;30.20;14.77;;;;;;;11.88;100.00;96746.56;5044088;28;20225;-71
2022/10/13 06:22:32;;;;;;;25.73;12.67;;;;;;;11.81;100.00;96748.22;5044112;28;20435;-70
2022/10/13 06:24:59;;;;;;;25.97;12.60;;;;;;;11.79;100.00;96744.94;5044289;28;20726;-70
2022/10/13 06:27:25;;;;;;;22.20;10.53;;;;;;;11.77;100.00;96742.50;5044028;28;20201;-71
2022/10/13 06:29:52;;;;;;;23.13;10.77;;;;;;;11.90;100.00;96747.19;5044370;28;20681;-70
2022/10/13 06:32:18;;;;;;;27.17;10.67;;;;;;;11.92;100.00;96745.22;5042868;28;20232;-71
2022/10/13 06:34:46;;;;;;;27.10;11.43;;;;;;;12.03;100.00;96747.44;5044160;28;20220;-72
2022/10/13 06:37:13;;;;;;;25.67;12.03;;;;;;;11.97;100.00;96737.59;5043913;28;20216;-73
2022/10/13 06:39:39;;;;;;;25.70;12.17;;;;;;;11.99;100.00;96736.44;5044207;28;20212;-70
2022/10/13 06:42:06;;;;;;;27.47;12.57;;;;;;;11.95;100.00;96739.56;5043593;28;20663;-71
2022/10/13 06:44:32;;;;;;;21.47;11.23;;;;;;;11.82;100.00;96745.41;5043957;28;20197;-73
2022/10/13 06:46:59;;;;;;;25.50;12.30;;;;;;;11.91;100.00;96754.13;5043985;28;20208;-70
2022/10/13 06:49:26;;;;;;;27.33;11.93;;;;;;;12.00;100.00;96742.53;5043483;28;20678;-70
2022/10/13 06:51:53;;;;;;;27.20;11.50;;;;;;;12.02;100.00;96743.19;5043859;28;20236;-71
2022/10/13 06:54:21;;;;;;;24.67;11.77;;;;;;;12.01;100.00;96750.28;5043312;28;20205;-70
2022/10/13 06:56:47;;;;;;;30.37;12.10;;;;;;;12.05;100.00;96748.09;5043627;28;20209;-71
2022/10/13 06:59:14;;;;;;;27.07;12.57;;;;;;;12.05;100.00;96746.28;5043556;28;20574;-70
2022/10/13 07:01:40;;;;;;;27.33;11.97;;;;;;;12.07;100.00;96748.78;5043497;28;20716;-70
2022/10/13 07:04:07;;;;;;;22.07;11.20;;;;;;;12.16;100.00;96737.97;5043012;28;20209;-71
2022/10/13 07:06:33;;;;;;;22.80;11.13;;;;;;;12.22;100.00;96737.28;5043523;28;20201;-73
2022/10/13 07:09:04;;;;;;;22.67;11.93;;;;;;;12.42;100.00;96739.28;5043465;28;20228;-70
2022/10/13 07:11:30;;;;;;;24.20;10.83;;;;;;;12.21;100.00;96733.81;5043215;28;20224;-70
2022/10/13 07:13:57;;;;;;;24.17;10.93;;;;;;;12.34;100.00;96741.16;5042494;28;20235;-71
2022/10/13 07:16:23;;;;;;;26.43;11.27;;;;;;;12.30;100.00;96739.88;5043538;28;20208;-71
2022/10/13 07:18:50;;;;;;;26.13;12.23;;;;;;;12.41;100.00;96737.63;5043273;28;20209;-73
2022/10/13 07:21:17;;;;;;;23.37;11.53;;;;;;;12.46;100.00;96740.59;5043038;28;20402;-73
2022/10/13 07:23:43;;;;;;;30.97;11.07;;;;;;;12.53;100.00;96730.94;5042498;28;20228;-74
2022/10/13 07:26:13;;;;;;;31.90;11.63;;;;;;;12.67;100.00;96729.34;5043272;28;20565;-71
2022/10/13 07:28:40;;;;;;;28.80;11.87;;;;;;;12.62;100.00;96729.88;5043399;28;20220;-70
2022/10/13 07:31:10;;;;;;;27.13;12.07;;;;;;;12.65;100.00;96729.50;5042935;28;20422;-74
2022/10/13 07:33:37;;;;;;;25.87;11.67;;;;;;;12.65;100.00;96729.50;5042427;28;20193;-70
2022/10/13 07:36:04;;;;;;;23.87;11.70;;;;;;;12.71;100.00;96734.09;5043047;28;20202;-74
2022/10/13 07:38:30;;;;;;;26.70;11.77;;;;;;;12.76;100.00;96737.03;5042636;28;20215;-71
2022/10/13 07:41:00;;;;;;;31.17;11.93;;;;;;;12.96;100.00;96743.50;5042908;28;20233;-70
2022/10/13 07:43:28;;;;;;;33.97;12.37;;;;;;;12.98;100.00;96733.56;5042015;28;20596;-72
2022/10/13 07:45:54;;;;;;;29.02;11.85;;;;;;;13.04;100.00;96730.19;5042930;28;20209;-70
2022/10/13 07:48:21;;;;;;;28.10;11.88;;;;;;;13.02;100.00;96730.38;5042841;28;20916;-73
2022/10/13 07:50:47;;;;;;;27.45;11.88;;;;;;;13.00;100.00;96742.16;5042526;28;20232;-71
2022/10/13 07:53:14;;;;;;;28.15;11.95;;;;;;;13.09;100.00;96726.00;5042414;28;20224;-70
2022/10/13 07:55:40;;;;;;;28.60;11.90;;;;;;;13.18;100.00;96732.03;5042603;28;20201;-73
2022/10/13 07:58:07;;;;;;;36.40;12.47;;;;;;;13.31;100.00;96726.94;5042582;28;20213;-74
2022/10/13 08:00:35;;;;;;;28.73;12.05;;;;;;;13.46;100.00;96724.09;5042598;28;20236;-70
2022/10/13 08:03:01;;;;;;;33.33;11.87;;;;;;;13.50;100.00;96717.47;5041747;28;20577;-70
2022/10/13 08:05:28;;;;;;;31.87;12.83;;;;;;;13.47;100.00;96717.81;5041810;28;20201;-74
2022/10/13 08:07:54;;;;;;;28.48;11.35;;;;;;;13.49;100.00;96718.47;5042849;28;20202;-70
2022/10/13 08:10:21;;;;;;;33.20;12.55;;;;;;;13.44;100.00;96718.19;5042374;28;20201;-70
2022/10/13 08:12:47;;;;;;;30.90;12.75;;;;;;;13.64;100.00;96724.56;5041985;28;20212;-71
2022/10/13 08:15:14;;;;;;;34.20;11.25;;;;;;;13.52;100.00;96723.38;5042273;28;20209;-71
2022/10/13 08:17:42;;;;;;;32.33;11.50;;;;;;;13.63;100.00;96725.56;5042184;28;20942;-70
2022/10/13 08:20:09;;;;;;;29.95;11.85;;;;;;;13.71;100.00;96714.88;5042050;28;20213;-72
2022/10/13 08:22:36;;;;;;;29.33;11.45;;;;;;;13.84;100.00;96719.53;5041961;28;20773;-70
2022/10/13 08:25:02;;;;;;;28.83;11.40;;;;;;;13.87;100.00;96719.97;5042372;28;20205;-70
2022/10/13 08:27:29;;;;;;;32.47;12.10;;;;;;;13.94;100.00;96712.94;5042322;28;20209;-73
2022/10/13 08:29:56;;;;;;;31.38;12.77;;;;;;;13.89;100.00;96710.00;5042381;28;20201;-71
2022/10/13 08:32:23;;;;;;;29.48;11.70;;;;;;;14.18;100.00;96702.03;5041155;28;20351;-70
2022/10/13 08:34:51;;;;;;;22.73;10.80;;;;;;;14.38;100.00;96703.03;5042062;28;20209;-73
2022/10/13 08:37:20;;;;;;;30.05;10.52;;;;;;;14.27;100.00;96706.19;5042406;28;20208;-71
2022/10/13 08:39:47;;;;;;;17.15;7.82;;;;;;;14.17;100.00;96710.97;5042321;28;20344;-74
2022/10/13 08:42:17;;;;;;;32.15;10.55;;;;;;;14.30;100.00;96705.81;5041594;28;20256;-73
2022/10/13 08:44:48;;;;;;;28.65;11.23;;;;;;;14.36;100.00;96700.56;5041675;28;20201;-70
2022/10/13 08:47:30;;;;;;;27.98;11.75;;;;;;;14.53;100.00;96694.00;5041925;28;20216;-71
2022/10/13 08:50:02;;;;;;;36.58;12.05;;;;;;;14.68;100.00;96695.56;5042352;28;20213;-71
2022/10/13 08:52:43;;;;;;;36.47;11.70;;;;;;;14.60;100.00;96692.25;5041615;28;20221;-70
2022/10/13 08:55:20;;;;;;;32.22;13.60;;;;;;;14.94;100.00;96685.19;5043109;28;20212;-71
2022/10/13 08:57:47;;;;;;;27.10;10.85;;;;;;;15.10;100.00;96694.69;5045601;28;20258;-71
2022/10/13 09:00:14;;;;;;;26.70;10.60;;;;;;;15.04;100.00;96695.47;5046123;28;20884;-70
2022/10/13 09:02:43;;;;;;;19.52;8.73;;;;;;;15.00;100.00;96700.31;5044735;28;20228;-70
2022/10/13 09:05:18;;;;;;;27.08;10.90;;;;;;;15.14;100.00;96698.59;5045787;28;20679;-70
2022/10/13 09:07:46;;;;;;;30.88;10.18;;;;;;;15.04;100.00;96698.13;5045808;28;20212;-72
2022/10/13 09:10:14;;;;;;;35.17;10.90;;;;;;;14.94;100.00;96698.47;5045110;28;20486;-71
2022/10/13 09:12:40;;;;;;;22.30;9.02;;;;;;;15.13;100.00;96695.09;5044767;28;20323;-71
2022/10/13 09:15:09;;;;;;;26.05;10.43;;;;;;;15.13;100.00;96699.59;5045962;28;20233;-72
2022/10/13 09:17:37;;;;;;;66.25;11.48;;;;;;;15.17;100.00;96700.84;5045767;28;20212;-71
2022/10/13 09:20:07;;;;;;;26.40;11.43;;;;;;;15.24;100.00;96697.28;5045683;28;20212;-70
2022/10/13 09:22:36;;;;;;;27.27;9.68;;;;;;;15.25;100.00;96696.25;5044641;28;20592;-71
2022/10/13 09:25:20;;;;;;;29.23;11.05;;;;;;;15.48;100.00;96700.28;5045767;28;20204;-71
2022/10/13 09:27:50;;;;;;;26.63;9.65;;;;;;;15.46;100.00;96701.50;5045340;28;20208;-70
2022/10/13 09:30:30;;;;;;;28.30;9.70;;;;;;;15.51;100.00;96694.56;5045289;28;20211;-70
2022/10/13 09:33:20;;;;;;;30.05;9.65;;;;;;;15.61;100.00;96692.38;5044436;28;20202;-71
2022/10/13 09:35:49;;;;;;;24.55;9.18;;;;;;;15.65;100.00;96684.84;5045503;28;20205;-70
2022/10/13 09:38:19;;;;;;;29.35;9.73;;;;;;;15.63;100.00;96685.03;5044940;28;20689;-72
2022/10/13 09:40:58;;;;;;;24.17;9.63;;;;;;;15.65;100.00;96674.22;5045114;28;20553;-70
2022/10/13 09:43:30;;;;;;;26.88;9.50;;;;;;;15.68;100.00;96676.47;5044569;28;20536;-70
2022/10/13 09:45:57;;;;;;;22.00;8.75;;;;;;;15.67;100.00;96682.78;5045177;28;20578;-71
2022/10/13 09:48:27;;;;;;;23.77;9.77;;;;;;;15.68;100.00;96679.97;5044606;28;20224;-73
2022/10/13 09:50:55;;;;;;;22.98;9.02;;;;;;;15.74;100.00;96679.16;5044615;28;21002;-72
2022/10/13 09:53:28;;;;;;;21.83;8.77;;;;;;;15.75;100.00;96674.69;5044341;28;20212;-70
2022/10/13 09:56:20;;;;;;;19.13;7.05;;;;;;;15.96;98.21;96668.22;5045158;28;20851;-70
2022/10/13 09:58:52;;;;;;;21.63;8.52;;;;;;;16.08;97.81;96669.25;5044807;28;20204;-70
2022/10/13 10:01:24;;;;;;;26.60;8.85;;;;;;;16.23;98.89;96661.94;5044807;28;20233;-72
2022/10/13 10:03:51;;;;;;;21.92;7.88;;;;;;;16.23;97.00;96664.59;5044282;28;20228;-73
2022/10/13 10:06:18;;;;;;;20.95;7.78;;;;;;;16.36;95.72;96664.66;5043580;28;20201;-70
2022/10/13 10:08:52;;;;;;;20.77;8.82;;;;;;;16.61;98.66;96658.56;5044862;28;20205;-73
2022/10/13 10:11:24;;;;;;;24.90;8.88;;;;;;;16.70;96.89;96659.16;5045109;28;20220;-73
2022/10/13 10:13:51;;;;;;;23.80;8.57;;;;;;;16.68;95.09;96659.38;5044108;28;20205;-74
2022/10/13 10:16:29;;;;;;;21.83;9.00;;;;;;;16.75;93.84;96654.03;5044550;28;20205;-70
2022/10/13 10:19:03;;;;;;;21.00;9.98;;;;;;;16.57;94.61;96653.84;5044448;28;20247;-71
2022/10/13 10:21:36;;;;;;;24.98;10.02;;;;;;;16.61;92.96;96660.38;5044302;28;20228;-73
2022/10/13 10:24:14;;;;;;;21.83;10.00;;;;;;;16.70;94.84;96659.16;5043569;28;20669;-71
2022/10/13 10:26:48;;;;;;;21.88;8.32;;;;;;;16.75;92.55;96659.38;5044133;28;20708;-71
2022/10/13 10:29:24;;;;;;;12.82;6.50;;;;;;;16.50;92.54;96661.00;5044295;28;20693;-72
2022/10/13 10:32:05;;;;;;;26.92;9.48;;;;;;;16.59;93.41;96663.25;5044232;28;20224;-70
2022/10/13 10:34:38;;;;;;;22.60;9.15;;;;;;;16.69;92.03;96655.69;5044219;28;20201;-71
2022/10/13 10:37:15;;;;;;;20.58;7.32;;;;;;;16.61;92.13;96660.38;5044331;28;20205;-70
2022/10/13 10:39:48;;;;;;;24.95;9.50;;;;;;;16.71;92.20;96658.13;5043607;28;20568;-71
2022/10/13 10:42:29;;;;;;;19.23;7.72;;;;;;;16.54;92.46;96649.75;5043686;28;20740;-73
2022/10/13 10:44:57;;;;;;;19.60;7.53;;;;;;;16.46;93.57;96649.13;5043993;28;20267;-70
2022/10/13 10:47:27;;;;;;;25.23;9.38;;;;;;;16.71;92.73;96639.50;5043899;28;20564;-70
2022/10/13 10:49:59;;;;;;;21.58;8.48;;;;;;;16.91;91.49;96638.47;5043859;28;20377;-73
2022/10/13 10:52:36;;;;;;;23.95;8.60;;;;;;;17.01;92.17;96627.44;5043174;28;20252;-73
2022/10/13 10:55:19;;;;;;;17.73;7.70;;;;;;;17.05;91.77;96628.66;5044006;28;20207;-70
2022/10/13 10:57:58;;;;;;;16.52;7.15;;;;;;;17.21;89.53;96623.72;5043585;28;20212;-71
2022/10/13 11:00:24;;;;;;;25.42;8.48;;;;;;;17.06;90.34;96625.78;5043246;28;20232;-72
2022/10/13 11:03:00;;;;;;;18.17;8.00;;;;;;;17.38;89.84;96624.91;5043176;28;20746;-70
2022/10/13 11:05:51;;;;;;;17.50;7.45;;;;;;;17.56;90.01;96617.88;5043833;28;20205;-70
2022/10/13 11:08:27;;;;;;;18.80;7.85;;;;;;;17.68;91.61;96613.53;5043514;28;20205;-71
2022/10/13 11:11:28;;;;;;;20.48;7.93;;;;;;;17.78;87.23;96601.41;5043331;28;20231;-73
2022/10/13 11:13:59;;;;;;;24.10;7.80;;;;;;;17.92;89.97;96591.47;5042897;28;20634;-70
2022/10/13 11:16:36;;;;;;;18.45;8.00;;;;;;;17.75;86.70;96595.66;5043552;28;20208;-70
2022/10/13 11:19:07;;;;;;;17.30;7.47;;;;;;;17.76;87.88;96590.13;5041145;28;20204;-73
2022/10/13 11:22:23;;;;;;;23.33;8.18;;;;;;;17.88;84.36;96588.44;5043197;28;20660;-70
2022/10/13 11:25:36;;;;;;;17.50;6.68;;;;;;;17.70;84.20;96590.16;5042827;28;20743;-70